createdAt,value
2022-08-26T00:03:56.679Z,151085.88
2022-08-26T00:09:02.016Z,151049.53
2022-08-26T00:14:08.768Z,151022.28
2022-08-26T00:19:13.473Z,150995.09
2022-08-26T00:24:21.453Z,151010.63
2022-08-26T00:29:27.192Z,151002.81
2022-08-26T00:34:32.037Z,150987.28
2022-08-26T00:39:36.649Z,150993.75
2022-08-26T00:44:42.935Z,150995.09
2022-08-26T00:49:48.897Z,150948.38
2022-08-26T00:55:01.577Z,150926.34
2022-08-26T01:00:14.150Z,150931.56
2022-08-26T01:05:20.771Z,150940.63
2022-08-26T01:10:31.529Z,150871.91
2022-08-26T01:15:42.035Z,150882.28
2022-08-26T01:20:58.046Z,150899.16
2022-08-26T01:26:19.615Z,150892.66
2022-08-26T01:31:29.323Z,150905.59
2022-08-26T01:36:36.042Z,150909.53
2022-08-26T01:41:44.143Z,150922.47
2022-08-26T01:46:51.205Z,150906.88
2022-08-26T01:51:58.274Z,150873.19
2022-08-26T01:57:05.183Z,150855.09
2022-08-26T02:02:10.001Z,150870.63
2022-08-26T02:07:14.834Z,150848.59
2022-08-26T02:12:27.781Z,150813.56
2022-08-26T02:17:40.065Z,150813.56
2022-08-26T02:22:46.445Z,150781.16
2022-08-26T02:27:53.446Z,150774.66
2022-08-26T02:33:02.109Z,150764.28
2022-08-26T02:38:11.081Z,150782.44
2022-08-26T02:43:17.510Z,150773.38
2022-08-26T02:48:23.623Z,150729.31
2022-08-26T02:53:32.129Z,150720.25
2022-08-26T02:58:41.917Z,150721.53
2022-08-26T03:03:46.649Z,150725.47
2022-08-26T03:08:56.278Z,150733.19
2022-08-26T03:14:03.888Z,150717.66
2022-08-26T03:19:10.605Z,150681.41
2022-08-26T03:24:15.101Z,150685.28
2022-08-26T03:29:37.856Z,150651.63
2022-08-26T03:34:43.863Z,150667.13
2022-08-26T03:39:48.400Z,150650.31
2022-08-26T03:44:54.435Z,150652.91
2022-08-26T03:49:59.768Z,150636.09
2022-08-26T03:55:05.053Z,150650.31
2022-08-26T04:00:18.472Z,150664.56
2022-08-26T04:05:24.907Z,150655.47
2022-08-26T04:10:29.737Z,150672.34
2022-08-26T04:15:35.772Z,150671.06
2022-08-26T04:20:41.053Z,150668.44
2022-08-26T04:25:46.000Z,150667.13
2022-08-26T04:30:52.351Z,150673.63
2022-08-26T04:36:02.339Z,150696.94
2022-08-26T04:41:14.916Z,150720.25
2022-08-26T04:46:25.196Z,150738.41
2022-08-26T04:51:29.745Z,150772.09
2022-08-26T04:56:36.518Z,150790.25
2022-08-26T05:01:46.230Z,150835.63
2022-08-26T05:06:52.164Z,150862.81
2022-08-26T05:11:57.434Z,150896.50
2022-08-26T05:17:03.866Z,150935.41
2022-08-26T05:22:13.079Z,150971.69
2022-08-26T05:27:18.070Z,151008.03
2022-08-26T05:32:24.577Z,151033.94
2022-08-26T05:37:29.950Z,151085.88
2022-08-26T05:42:36.627Z,151115.72
2022-08-26T05:47:43.171Z,151142.94
2022-08-26T05:52:47.575Z,151205.19
2022-08-26T05:57:52.142Z,151279.16
2022-08-26T06:02:58.963Z,151359.66
2022-08-26T06:08:14.602Z,151434.94
2022-08-26T06:13:19.982Z,151431.06
2022-08-26T06:18:32.755Z,151503.75
2022-08-26T06:23:55.474Z,151649.22
2022-08-26T06:29:01.713Z,152011.84
2022-08-26T06:34:10.967Z,152627.41
2022-08-26T06:39:18.955Z,153375.72
2022-08-26T06:44:24.672Z,154177.63
2022-08-26T06:49:31.427Z,154532.06
2022-08-26T06:54:37.234Z,154819.97
2022-08-26T06:59:44.392Z,154855.34
2022-08-26T07:04:51.196Z,155437.00
2022-08-26T07:09:56.265Z,155596.94
2022-08-26T07:15:02.269Z,155969.56
2022-08-26T07:20:12.465Z,156192.66
2022-08-26T07:25:17.096Z,155878.97
2022-08-26T07:30:24.798Z,155798.94
2022-08-26T07:35:30.591Z,156235.97
2022-08-26T07:40:36.120Z,156574.84
2022-08-26T07:45:52.792Z,156682.53
2022-08-26T07:50:59.625Z,156471.03
2022-08-26T07:56:05.094Z,156456.59
2022-08-26T08:01:09.877Z,156365.97
2022-08-26T08:06:16.608Z,156602.41
2022-08-26T08:11:22.376Z,156503.84
2022-08-26T08:16:27.334Z,155964.28
2022-08-26T08:21:34.299Z,155821.22
2022-08-26T08:26:39.065Z,155695.31
2022-08-26T08:31:56.524Z,155471.06
2022-08-26T08:37:10.620Z,155459.25
2022-08-26T08:42:33.593Z,155080.56
2022-08-26T08:47:43.754Z,154935.22
2022-08-26T08:53:00.361Z,154861.91
2022-08-26T08:58:10.602Z,154812.09
2022-08-26T09:03:33.965Z,154640.69
2022-08-26T09:08:41.586Z,154368.53
2022-08-26T09:13:56.131Z,154483.69
2022-08-26T09:19:19.371Z,154343.72
2022-08-26T09:24:28.565Z,154263.94
2022-08-26T09:29:44.385Z,154360.69
2022-08-26T09:34:58.412Z,154379.00
2022-08-26T09:40:27.041Z,154195.94
2022-08-26T09:45:39.982Z,154393.38
2022-08-26T09:50:56.281Z,154345.03
2022-08-26T09:56:18.113Z,154329.34
2022-08-26T10:01:32.917Z,154362.00
2022-08-26T10:06:42.210Z,154462.75
2022-08-26T10:11:53.913Z,154503.25
2022-08-26T10:17:05.522Z,154547.72
2022-08-26T10:22:16.861Z,154478.44
2022-08-26T10:27:33.227Z,154487.59
2022-08-26T10:32:43.484Z,154659.00
2022-08-26T10:37:54.113Z,154687.75
2022-08-26T10:43:11.442Z,154604.06
2022-08-26T10:48:22.960Z,154597.50
2022-08-26T10:53:39.738Z,154420.84
2022-08-26T10:59:01.392Z,154575.22
2022-08-26T11:04:14.969Z,154736.25
2022-08-26T11:09:47.227Z,154872.38
2022-08-26T11:14:58.898Z,154813.44
2022-08-26T11:20:09.265Z,154847.47
2022-08-26T11:25:19.822Z,154783.34
2022-08-26T11:30:48.229Z,154780.72
2022-08-26T11:36:12.057Z,154850.09
2022-08-26T11:41:24.857Z,154584.38
2022-08-26T11:46:37.996Z,154507.22
2022-08-26T11:51:48.274Z,154753.22
2022-08-26T11:56:54.398Z,154816.06
2022-08-26T12:02:02.585Z,154761.09
2022-08-26T12:07:09.116Z,154703.50
2022-08-26T12:12:16.540Z,154700.84
2022-08-26T12:17:29.826Z,154795.13
2022-08-26T12:22:39.059Z,154762.41
2022-08-26T12:27:53.599Z,154784.66
2022-08-26T12:33:22.760Z,154843.50
2022-08-26T12:38:29.642Z,154778.09
2022-08-26T12:43:45.813Z,154682.56
2022-08-26T12:48:53.304Z,154738.84
2022-08-26T12:53:59.020Z,154721.78
2022-08-26T12:59:12.257Z,154897.22
2022-08-26T13:04:40.527Z,154834.41
2022-08-26T13:09:45.404Z,154665.53
2022-08-26T13:14:51.096Z,154898.53
2022-08-26T13:20:03.513Z,154977.06
2022-08-26T13:25:09.537Z,154995.47
2022-08-26T13:30:15.852Z,155180.16
2022-08-26T13:35:22.045Z,155271.88
2022-08-26T13:40:28.466Z,155212.88
2022-08-26T13:45:36.534Z,155144.81
2022-08-26T13:50:42.328Z,155705.81
2022-08-26T13:55:48.228Z,155863.25
2022-08-26T14:00:52.842Z,156075.81
2022-08-26T14:05:59.793Z,155793.72
2022-08-26T14:11:04.652Z,155860.63
2022-08-26T14:16:13.670Z,155816.00
2022-08-26T14:21:20.975Z,155096.28
2022-08-26T14:26:28.799Z,155287.63
2022-08-26T14:31:38.075Z,155628.47
2022-08-26T14:36:44.849Z,155081.88
2022-08-26T14:41:53.893Z,155341.34
2022-08-26T14:47:02.745Z,155515.66
2022-08-26T14:52:08.942Z,155624.50
2022-08-26T14:57:17.281Z,155447.47
2022-08-26T15:02:32.329Z,155687.44
2022-08-26T15:07:40.724Z,155720.22
2022-08-26T15:12:47.134Z,154679.91
2022-08-26T15:17:51.784Z,154222.09
2022-08-26T15:22:59.004Z,154093.97
2022-08-26T15:28:10.789Z,154011.66
2022-08-26T15:33:15.889Z,153988.09
2022-08-26T15:38:21.700Z,153793.47
2022-08-26T15:43:29.039Z,153739.91
2022-08-26T15:48:33.953Z,153707.25
2022-08-26T15:53:39.750Z,153571.44
2022-08-26T15:58:44.767Z,153636.75
2022-08-26T16:09:28.177Z,153521.88
2022-08-26T16:14:42.347Z,153502.28
2022-08-26T16:19:47.253Z,153430.50
2022-08-26T16:24:58.175Z,153425.25
2022-08-26T16:30:02.993Z,153386.16
2022-08-26T16:35:09.883Z,153347.00
2022-08-26T16:40:15.985Z,153320.94
2022-08-26T16:45:21.164Z,153294.81
2022-08-26T16:50:26.095Z,153240.00
2022-08-26T16:55:32.516Z,153166.97
2022-08-26T17:00:38.242Z,153142.19
2022-08-26T17:05:42.602Z,153099.13
2022-08-26T17:10:48.875Z,153047.03
2022-08-26T17:16:00.341Z,153002.66
2022-08-26T17:21:11.886Z,152921.84
2022-08-26T17:26:18.204Z,152843.69
2022-08-26T17:31:24.894Z,152787.63
2022-08-26T17:36:29.229Z,152744.63
2022-08-26T17:41:35.133Z,152665.22
2022-08-26T17:46:39.812Z,152622.19
2022-08-26T17:51:44.377Z,152575.28
2022-08-26T17:56:50.523Z,152525.84
2022-08-26T18:01:55.696Z,152499.78
2022-08-26T18:07:00.620Z,152508.91
2022-08-26T18:12:07.796Z,152465.94
2022-08-26T18:17:12.615Z,152450.28
2022-08-26T18:22:23.795Z,152403.47
2022-08-26T18:27:29.895Z,152398.22
2022-08-26T18:32:34.914Z,152398.22
2022-08-26T18:37:39.493Z,152369.63
2022-08-26T18:42:45.951Z,152360.50
2022-08-26T18:47:54.119Z,152327.97
2022-08-26T18:52:58.822Z,152304.56
2022-08-26T18:58:05.040Z,152286.34
2022-08-26T19:03:15.581Z,152262.88
2022-08-26T19:08:23.872Z,152239.47
2022-08-26T19:13:30.637Z,152171.81
2022-08-26T19:18:35.079Z,152153.63
2022-08-26T19:23:41.704Z,152113.28
2022-08-26T19:28:49.736Z,152099.00
2022-08-26T19:33:54.636Z,152113.28
2022-08-26T19:39:00.608Z,152072.91
2022-08-26T19:44:10.784Z,152052.16
2022-08-26T19:49:15.896Z,152052.16
2022-08-26T19:54:22.857Z,152017.03
2022-08-26T19:59:29.412Z,152035.25
2022-08-26T20:04:34.329Z,152037.81
2022-08-26T20:09:40.173Z,152036.53
2022-08-26T20:14:46.380Z,151950.72
2022-08-26T20:20:28.459Z,151940.31
2022-08-26T20:25:33.929Z,151914.34
2022-08-26T20:30:40.421Z,151866.19
2022-08-26T20:35:45.069Z,151841.50
2022-08-26T20:40:51.318Z,151825.94
2022-08-26T20:46:03.215Z,151783.06
2022-08-26T20:51:12.963Z,151750.56
2022-08-26T20:56:22.159Z,151692.03
2022-08-26T21:01:34.753Z,151679.06
2022-08-26T21:06:40.165Z,151641.41
2022-08-26T21:11:47.389Z,151631.03
2022-08-26T21:16:53.859Z,151615.41
2022-08-26T21:22:00.012Z,151588.16
2022-08-26T21:27:04.570Z,151545.31
2022-08-26T21:32:10.611Z,151546.63
2022-08-26T21:37:19.978Z,151514.16
2022-08-26T21:42:27.007Z,151446.59
2022-08-26T21:47:33.485Z,151441.44
2022-08-26T21:52:39.623Z,151412.88
2022-08-26T21:57:44.533Z,151395.97
2022-08-26T22:02:50.876Z,151370.03
2022-08-26T22:07:55.556Z,151386.91
2022-08-26T22:13:00.229Z,151375.19
2022-08-26T22:18:09.914Z,151285.66
2022-08-26T22:23:14.986Z,151268.78
2022-08-26T22:28:20.334Z,151260.97
2022-08-26T22:33:27.085Z,151238.94
2022-08-26T22:38:32.442Z,151244.09
2022-08-26T22:43:38.872Z,151245.44
2022-08-26T22:48:44.516Z,151193.53
2022-08-26T22:53:49.510Z,151174.06
2022-08-26T22:58:53.853Z,151162.41
2022-08-26T23:03:59.613Z,151187.03
2022-08-26T23:09:04.959Z,151168.84
2022-08-26T23:14:09.839Z,151149.44
2022-08-26T23:19:18.213Z,151111.78
2022-08-26T23:24:23.051Z,151087.16
2022-08-26T23:29:27.741Z,151069.00
2022-08-26T23:34:51.015Z,151076.78
2022-08-26T23:39:56.573Z,151050.81
2022-08-26T23:45:01.335Z,151037.81
2022-08-26T23:50:09.414Z,151022.28
2022-08-26T23:55:15.179Z,150984.69
